sensor_id;sensor_type;location;lat;lon;timestamp;temperature;humidity
66522;SHT31;53349;53.538;8.584;2023-07-16T00:01:46;19.22;74.33
66522;SHT31;53349;53.538;8.584;2023-07-16T00:04:11;19.28;74.21
66522;SHT31;53349;53.538;8.584;2023-07-16T00:06:38;19.30;73.24
66522;SHT31;53349;53.538;8.584;2023-07-16T00:09:04;19.30;73.21
66522;SHT31;53349;53.538;8.584;2023-07-16T00:11:31;19.35;73.26
66522;SHT31;53349;53.538;8.584;2023-07-16T00:13:58;19.40;72.56
66522;SHT31;53349;53.538;8.584;2023-07-16T00:16:24;19.43;71.72
66522;SHT31;53349;53.538;8.584;2023-07-16T00:18:49;19.47;71.58
66522;SHT31;53349;53.538;8.584;2023-07-16T00:21:17;19.43;71.47
66522;SHT31;53349;53.538;8.584;2023-07-16T00:23:43;19.43;71.58
66522;SHT31;53349;53.538;8.584;2023-07-16T00:26:09;19.45;72.14
66522;SHT31;53349;53.538;8.584;2023-07-16T00:28:35;19.38;72.00
66522;SHT31;53349;53.538;8.584;2023-07-16T00:31:01;19.40;72.00
66522;SHT31;53349;53.538;8.584;2023-07-16T00:33:28;19.46;71.93
66522;SHT31;53349;53.538;8.584;2023-07-16T00:35:56;19.46;72.11
66522;SHT31;53349;53.538;8.584;2023-07-16T00:38:22;19.47;72.08
66522;SHT31;53349;53.538;8.584;2023-07-16T00:40:47;19.49;72.20
66522;SHT31;53349;53.538;8.584;2023-07-16T00:43:14;19.56;72.28
66522;SHT31;53349;53.538;8.584;2023-07-16T00:45:41;19.65;72.35
66522;SHT31;53349;53.538;8.584;2023-07-16T00:48:10;19.71;72.46
66522;SHT31;53349;53.538;8.584;2023-07-16T00:50:36;19.76;72.19
66522;SHT31;53349;53.538;8.584;2023-07-16T00:53:02;19.67;72.04
66522;SHT31;53349;53.538;8.584;2023-07-16T00:55:29;19.70;72.20
66522;SHT31;53349;53.538;8.584;2023-07-16T00:58:01;19.73;72.46
66522;SHT31;53349;53.538;8.584;2023-07-16T01:00:27;19.76;72.39
66522;SHT31;53349;53.538;8.584;2023-07-16T01:02:55;19.77;72.22
66522;SHT31;53349;53.538;8.584;2023-07-16T01:05:21;19.76;72.09
66522;SHT31;53349;53.538;8.584;2023-07-16T01:07:55;19.71;72.14
66522;SHT31;53349;53.538;8.584;2023-07-16T01:10:23;19.71;72.27
66522;SHT31;53349;53.538;8.584;2023-07-16T01:12:50;19.67;72.26
66522;SHT31;53349;53.538;8.584;2023-07-16T01:15:16;19.70;72.28
66522;SHT31;53349;53.538;8.584;2023-07-16T01:17:43;19.60;72.14
66522;SHT31;53349;53.538;8.584;2023-07-16T01:20:10;19.63;72.18
66522;SHT31;53349;53.538;8.584;2023-07-16T01:22:39;19.60;72.08
66522;SHT31;53349;53.538;8.584;2023-07-16T01:30:39;19.56;71.38
66522;SHT31;53349;53.538;8.584;2023-07-16T01:33:09;19.49;71.00
66522;SHT31;53349;53.538;8.584;2023-07-16T01:35:37;19.50;71.00
66522;SHT31;53349;53.538;8.584;2023-07-16T01:38:04;19.52;70.97
66522;SHT31;53349;53.538;8.584;2023-07-16T01:40:30;19.46;70.51
66522;SHT31;53349;53.538;8.584;2023-07-16T01:42:57;19.47;70.31
66522;SHT31;53349;53.538;8.584;2023-07-16T01:45:24;19.49;70.09
66522;SHT31;53349;53.538;8.584;2023-07-16T01:48:03;19.50;70.19
66522;SHT31;53349;53.538;8.584;2023-07-16T01:50:31;19.56;70.34
66522;SHT31;53349;53.538;8.584;2023-07-16T01:52:59;19.52;70.51
66522;SHT31;53349;53.538;8.584;2023-07-16T01:55:25;19.52;70.01
66522;SHT31;53349;53.538;8.584;2023-07-16T01:57:51;19.46;70.09
66522;SHT31;53349;53.538;8.584;2023-07-16T02:00:19;19.49;69.81
66522;SHT31;53349;53.538;8.584;2023-07-16T02:02:46;19.50;69.79
66522;SHT31;53349;53.538;8.584;2023-07-16T02:05:12;19.45;69.69
66522;SHT31;53349;53.538;8.584;2023-07-16T02:07:38;19.39;69.68
66522;SHT31;53349;53.538;8.584;2023-07-16T02:10:05;19.39;70.14
66522;SHT31;53349;53.538;8.584;2023-07-16T02:12:31;19.38;70.29
66522;SHT31;53349;53.538;8.584;2023-07-16T02:14:56;19.32;70.26
66522;SHT31;53349;53.538;8.584;2023-07-16T02:17:23;19.35;70.24
66522;SHT31;53349;53.538;8.584;2023-07-16T02:19:49;19.25;70.16
66522;SHT31;53349;53.538;8.584;2023-07-16T02:22:14;19.20;70.26
66522;SHT31;53349;53.538;8.584;2023-07-16T02:24:41;19.19;70.55
66522;SHT31;53349;53.538;8.584;2023-07-16T02:27:07;19.11;70.76
66522;SHT31;53349;53.538;8.584;2023-07-16T02:29:34;19.09;70.78
66522;SHT31;53349;53.538;8.584;2023-07-16T02:32:00;19.09;71.00
66522;SHT31;53349;53.538;8.584;2023-07-16T02:34:26;19.07;71.49
66522;SHT31;53349;53.538;8.584;2023-07-16T02:36:52;19.04;71.77
66522;SHT31;53349;53.538;8.584;2023-07-16T02:39:17;19.02;72.08
66522;SHT31;53349;53.538;8.584;2023-07-16T02:41:42;19.08;72.38
66522;SHT31;53349;53.538;8.584;2023-07-16T02:44:09;19.11;72.38
66522;SHT31;53349;53.538;8.584;2023-07-16T02:46:37;19.05;72.48
66522;SHT31;53349;53.538;8.584;2023-07-16T02:49:05;19.04;72.76
66522;SHT31;53349;53.538;8.584;2023-07-16T02:51:30;18.97;73.01
66522;SHT31;53349;53.538;8.584;2023-07-16T02:53:56;18.91;73.12
66522;SHT31;53349;53.538;8.584;2023-07-16T02:56:26;18.89;73.26
66522;SHT31;53349;53.538;8.584;2023-07-16T02:58:52;18.87;73.22
66522;SHT31;53349;53.538;8.584;2023-07-16T03:01:18;18.81;73.24
66522;SHT31;53349;53.538;8.584;2023-07-16T03:03:44;18.88;73.15
66522;SHT31;53349;53.538;8.584;2023-07-16T03:06:09;18.88;73.06
66522;SHT31;53349;53.538;8.584;2023-07-16T03:08:38;18.87;73.08
66522;SHT31;53349;53.538;8.584;2023-07-16T03:11:09;18.87;73.24
66522;SHT31;53349;53.538;8.584;2023-07-16T03:13:34;18.83;73.28
66522;SHT31;53349;53.538;8.584;2023-07-16T03:16:00;18.78;73.56
66522;SHT31;53349;53.538;8.584;2023-07-16T03:18:29;18.77;73.62
66522;SHT31;53349;53.538;8.584;2023-07-16T03:20:55;18.81;73.60
66522;SHT31;53349;53.538;8.584;2023-07-16T03:23:21;18.83;73.53
66522;SHT31;53349;53.538;8.584;2023-07-16T03:25:48;18.83;73.40
66522;SHT31;53349;53.538;8.584;2023-07-16T03:28:14;18.79;73.50
66522;SHT31;53349;53.538;8.584;2023-07-16T03:30:40;18.77;73.32
66522;SHT31;53349;53.538;8.584;2023-07-16T03:33:05;18.75;73.34
66522;SHT31;53349;53.538;8.584;2023-07-16T03:35:31;18.75;73.31
66522;SHT31;53349;53.538;8.584;2023-07-16T03:37:56;18.72;73.39
66522;SHT31;53349;53.538;8.584;2023-07-16T03:40:26;18.75;73.38
66522;SHT31;53349;53.538;8.584;2023-07-16T03:42:53;18.77;73.44
66522;SHT31;53349;53.538;8.584;2023-07-16T03:45:18;18.81;73.35
66522;SHT31;53349;53.538;8.584;2023-07-16T03:47:44;18.81;73.27
66522;SHT31;53349;53.538;8.584;2023-07-16T03:50:09;18.81;73.35
66522;SHT31;53349;53.538;8.584;2023-07-16T03:52:35;18.85;72.87
66522;SHT31;53349;53.538;8.584;2023-07-16T03:55:00;18.88;72.68
66522;SHT31;53349;53.538;8.584;2023-07-16T03:57:28;18.88;72.61
66522;SHT31;53349;53.538;8.584;2023-07-16T03:59:53;18.83;72.74
66522;SHT31;53349;53.538;8.584;2023-07-16T04:02:19;18.77;72.96
66522;SHT31;53349;53.538;8.584;2023-07-16T04:04:45;18.75;72.90
66522;SHT31;53349;53.538;8.584;2023-07-16T04:07:11;18.77;73.01
66522;SHT31;53349;53.538;8.584;2023-07-16T04:09:37;18.78;72.77
66522;SHT31;53349;53.538;8.584;2023-07-16T04:12:03;18.79;72.70
66522;SHT31;53349;53.538;8.584;2023-07-16T04:14:29;18.91;72.81
66522;SHT31;53349;53.538;8.584;2023-07-16T04:16:54;19.05;72.30
66522;SHT31;53349;53.538;8.584;2023-07-16T04:19:19;19.18;72.11
66522;SHT31;53349;53.538;8.584;2023-07-16T04:21:45;19.35;71.63
66522;SHT31;53349;53.538;8.584;2023-07-16T04:24:10;19.53;71.22
66522;SHT31;53349;53.538;8.584;2023-07-16T04:26:35;19.67;70.55
66522;SHT31;53349;53.538;8.584;2023-07-16T04:29:01;19.81;70.02
66522;SHT31;53349;53.538;8.584;2023-07-16T04:31:26;19.96;69.56
66522;SHT31;53349;53.538;8.584;2023-07-16T04:33:52;20.11;69.16
66522;SHT31;53349;53.538;8.584;2023-07-16T04:36:17;20.27;68.61
66522;SHT31;53349;53.538;8.584;2023-07-16T04:38:45;20.49;68.24
66522;SHT31;53349;53.538;8.584;2023-07-16T04:41:10;20.59;67.58
66522;SHT31;53349;53.538;8.584;2023-07-16T04:43:37;20.66;67.29
66522;SHT31;53349;53.538;8.584;2023-07-16T04:46:03;20.69;66.88
66522;SHT31;53349;53.538;8.584;2023-07-16T04:48:29;20.69;66.78
66522;SHT31;53349;53.538;8.584;2023-07-16T04:50:54;20.61;66.96
66522;SHT31;53349;53.538;8.584;2023-07-16T04:53:19;20.58;67.27
66522;SHT31;53349;53.538;8.584;2023-07-16T04:55:46;20.45;67.51
66522;SHT31;53349;53.538;8.584;2023-07-16T04:58:11;20.39;67.16
66522;SHT31;53349;53.538;8.584;2023-07-16T05:00:38;20.42;67.13
66522;SHT31;53349;53.538;8.584;2023-07-16T05:03:04;20.39;67.09
66522;SHT31;53349;53.538;8.584;2023-07-16T05:05:29;20.41;67.09
66522;SHT31;53349;53.538;8.584;2023-07-16T05:07:54;20.49;67.15
66522;SHT31;53349;53.538;8.584;2023-07-16T05:10:21;20.61;66.97
66522;SHT31;53349;53.538;8.584;2023-07-16T05:12:46;20.68;66.73
66522;SHT31;53349;53.538;8.584;2023-07-16T05:15:13;20.79;66.56
66522;SHT31;53349;53.538;8.584;2023-07-16T05:17:38;20.85;66.06
66522;SHT31;53349;53.538;8.584;2023-07-16T05:20:06;20.78;65.95
66522;SHT31;53349;53.538;8.584;2023-07-16T05:22:32;20.85;65.60
66522;SHT31;53349;53.538;8.584;2023-07-16T05:24:58;20.93;64.97
66522;SHT31;53349;53.538;8.584;2023-07-16T05:27:23;21.06;64.59
66522;SHT31;53349;53.538;8.584;2023-07-16T05:29:49;21.27;64.37
66522;SHT31;53349;53.538;8.584;2023-07-16T05:32:14;21.46;63.78
66522;SHT31;53349;53.538;8.584;2023-07-16T05:34:40;21.61;62.94
66522;SHT31;53349;53.538;8.584;2023-07-16T05:37:05;21.78;62.66
66522;SHT31;53349;53.538;8.584;2023-07-16T05:39:31;21.99;61.97
66522;SHT31;53349;53.538;8.584;2023-07-16T05:41:56;22.25;61.67
66522;SHT31;53349;53.538;8.584;2023-07-16T05:44:23;22.50;60.85
66522;SHT31;53349;53.538;8.584;2023-07-16T05:46:48;22.77;60.19
66522;SHT31;53349;53.538;8.584;2023-07-16T05:49:18;22.96;58.86
66522;SHT31;53349;53.538;8.584;2023-07-16T05:51:43;23.12;58.10
66522;SHT31;53349;53.538;8.584;2023-07-16T05:54:08;23.42;57.42
66522;SHT31;53349;53.538;8.584;2023-07-16T05:56:34;23.62;56.84
66522;SHT31;53349;53.538;8.584;2023-07-16T05:59:05;23.83;56.05
66522;SHT31;53349;53.538;8.584;2023-07-16T06:01:30;24.02;55.47
66522;SHT31;53349;53.538;8.584;2023-07-16T06:03:56;24.26;54.69
66522;SHT31;53349;53.538;8.584;2023-07-16T06:06:22;24.28;54.50
66522;SHT31;53349;53.538;8.584;2023-07-16T06:08:49;24.50;54.45
66522;SHT31;53349;53.538;8.584;2023-07-16T06:11:14;24.53;53.45
66522;SHT31;53349;53.538;8.584;2023-07-16T06:13:42;24.63;53.32
66522;SHT31;53349;53.538;8.584;2023-07-16T06:16:08;24.77;52.72
66522;SHT31;53349;53.538;8.584;2023-07-16T06:18:34;24.78;52.53
66522;SHT31;53349;53.538;8.584;2023-07-16T06:21:01;24.78;52.47
66522;SHT31;53349;53.538;8.584;2023-07-16T06:23:29;25.01;52.25
66522;SHT31;53349;53.538;8.584;2023-07-16T06:25:55;25.16;51.81
66522;SHT31;53349;53.538;8.584;2023-07-16T06:28:21;25.25;50.89
66522;SHT31;53349;53.538;8.584;2023-07-16T06:30:47;25.33;50.83
66522;SHT31;53349;53.538;8.584;2023-07-16T06:33:13;25.37;50.21
66522;SHT31;53349;53.538;8.584;2023-07-16T06:35:39;25.51;50.23
66522;SHT31;53349;53.538;8.584;2023-07-16T06:38:04;25.74;50.09
66522;SHT31;53349;53.538;8.584;2023-07-16T06:40:31;25.80;49.70
66522;SHT31;53349;53.538;8.584;2023-07-16T06:42:56;25.93;49.10
66522;SHT31;53349;53.538;8.584;2023-07-16T06:45:22;25.97;49.00
66522;SHT31;53349;53.538;8.584;2023-07-16T06:47:54;25.83;48.46
66522;SHT31;53349;53.538;8.584;2023-07-16T06:50:20;25.76;49.15
66522;SHT31;53349;53.538;8.584;2023-07-16T06:52:47;25.94;49.74
66522;SHT31;53349;53.538;8.584;2023-07-16T06:55:12;26.17;49.02
66522;SHT31;53349;53.538;8.584;2023-07-16T06:57:38;26.28;48.55
66522;SHT31;53349;53.538;8.584;2023-07-16T07:00:06;26.44;47.81
66522;SHT31;53349;53.538;8.584;2023-07-16T07:02:32;26.55;47.41
66522;SHT31;53349;53.538;8.584;2023-07-16T07:04:57;26.68;47.03
66522;SHT31;53349;53.538;8.584;2023-07-16T07:07:24;26.72;46.60
66522;SHT31;53349;53.538;8.584;2023-07-16T07:09:49;26.72;47.22
66522;SHT31;53349;53.538;8.584;2023-07-16T07:12:15;26.58;46.62
66522;SHT31;53349;53.538;8.584;2023-07-16T07:14:43;26.28;47.63
66522;SHT31;53349;53.538;8.584;2023-07-16T07:17:08;26.32;47.04
66522;SHT31;53349;53.538;8.584;2023-07-16T07:19:33;26.39;47.15
66522;SHT31;53349;53.538;8.584;2023-07-16T07:21:59;25.86;48.38
66522;SHT31;53349;53.538;8.584;2023-07-16T07:24:25;25.56;49.38
66522;SHT31;53349;53.538;8.584;2023-07-16T07:26:51;25.67;48.94
66522;SHT31;53349;53.538;8.584;2023-07-16T07:29:16;25.73;49.05
66522;SHT31;53349;53.538;8.584;2023-07-16T07:31:42;25.65;48.60
66522;SHT31;53349;53.538;8.584;2023-07-16T07:34:07;25.32;49.73
66522;SHT31;53349;53.538;8.584;2023-07-16T07:36:33;25.30;49.72
66522;SHT31;53349;53.538;8.584;2023-07-16T07:38:58;25.22;49.66
66522;SHT31;53349;53.538;8.584;2023-07-16T07:41:23;25.02;49.79
66522;SHT31;53349;53.538;8.584;2023-07-16T07:43:49;25.01;50.31
66522;SHT31;53349;53.538;8.584;2023-07-16T07:46:14;24.95;49.99
66522;SHT31;53349;53.538;8.584;2023-07-16T07:48:39;24.79;50.65
66522;SHT31;53349;53.538;8.584;2023-07-16T07:51:05;24.68;50.69
66522;SHT31;53349;53.538;8.584;2023-07-16T07:53:30;24.56;51.37
66522;SHT31;53349;53.538;8.584;2023-07-16T07:55:56;24.51;51.95
66522;SHT31;53349;53.538;8.584;2023-07-16T07:58:22;24.54;51.60
66522;SHT31;53349;53.538;8.584;2023-07-16T08:00:48;24.38;51.94
66522;SHT31;53349;53.538;8.584;2023-07-16T08:03:14;24.33;52.75
66522;SHT31;53349;53.538;8.584;2023-07-16T08:05:39;24.20;52.80
66522;SHT31;53349;53.538;8.584;2023-07-16T08:08:05;23.93;52.96
66522;SHT31;53349;53.538;8.584;2023-07-16T08:10:30;23.80;53.56
66522;SHT31;53349;53.538;8.584;2023-07-16T08:12:55;23.73;53.53
66522;SHT31;53349;53.538;8.584;2023-07-16T08:15:24;23.76;53.10
66522;SHT31;53349;53.538;8.584;2023-07-16T08:17:49;23.75;51.96
66522;SHT31;53349;53.538;8.584;2023-07-16T08:20:15;23.86;52.76
66522;SHT31;53349;53.538;8.584;2023-07-16T08:22:41;23.96;52.18
66522;SHT31;53349;53.538;8.584;2023-07-16T08:25:08;24.16;51.65
66522;SHT31;53349;53.538;8.584;2023-07-16T08:27:35;23.99;50.92
66522;SHT31;53349;53.538;8.584;2023-07-16T08:30:00;24.16;50.70
66522;SHT31;53349;53.538;8.584;2023-07-16T08:32:29;24.17;51.37
66522;SHT31;53349;53.538;8.584;2023-07-16T08:34:55;24.20;51.23
66522;SHT31;53349;53.538;8.584;2023-07-16T08:37:22;24.28;51.97
66522;SHT31;53349;53.538;8.584;2023-07-16T08:39:51;24.50;50.94
66522;SHT31;53349;53.538;8.584;2023-07-16T08:42:17;24.28;51.54
66522;SHT31;53349;53.538;8.584;2023-07-16T08:44:42;24.43;51.44
66522;SHT31;53349;53.538;8.584;2023-07-16T08:47:08;24.37;50.35
66522;SHT31;53349;53.538;8.584;2023-07-16T08:49:34;24.38;50.30
66522;SHT31;53349;53.538;8.584;2023-07-16T08:52:01;24.38;49.57
66522;SHT31;53349;53.538;8.584;2023-07-16T08:54:27;24.74;49.41
66522;SHT31;53349;53.538;8.584;2023-07-16T08:56:52;24.98;49.14
66522;SHT31;53349;53.538;8.584;2023-07-16T08:59:18;25.06;48.49
66522;SHT31;53349;53.538;8.584;2023-07-16T09:01:47;25.01;48.97
66522;SHT31;53349;53.538;8.584;2023-07-16T09:04:12;25.35;48.64
66522;SHT31;53349;53.538;8.584;2023-07-16T09:06:38;25.59;47.13
66522;SHT31;53349;53.538;8.584;2023-07-16T09:09:03;25.56;47.51
66522;SHT31;53349;53.538;8.584;2023-07-16T09:11:29;25.35;47.59
66522;SHT31;53349;53.538;8.584;2023-07-16T09:13:54;25.42;48.23
66522;SHT31;53349;53.538;8.584;2023-07-16T09:16:20;25.18;48.85
66522;SHT31;53349;53.538;8.584;2023-07-16T09:18:45;25.09;48.87
66522;SHT31;53349;53.538;8.584;2023-07-16T09:21:11;25.12;48.79
66522;SHT31;53349;53.538;8.584;2023-07-16T09:23:36;25.35;48.76
66522;SHT31;53349;53.538;8.584;2023-07-16T09:26:02;25.36;47.56
66522;SHT31;53349;53.538;8.584;2023-07-16T09:28:29;25.63;47.38
66522;SHT31;53349;53.538;8.584;2023-07-16T09:30:55;25.81;47.56
66522;SHT31;53349;53.538;8.584;2023-07-16T09:33:22;25.66;47.66
66522;SHT31;53349;53.538;8.584;2023-07-16T09:35:49;25.46;47.78
66522;SHT31;53349;53.538;8.584;2023-07-16T09:38:16;25.23;48.47
66522;SHT31;53349;53.538;8.584;2023-07-16T09:40:42;24.98;47.86
66522;SHT31;53349;53.538;8.584;2023-07-16T09:43:08;24.74;49.10
66522;SHT31;53349;53.538;8.584;2023-07-16T09:45:34;24.54;49.59
66522;SHT31;53349;53.538;8.584;2023-07-16T09:48:02;24.27;49.36
66522;SHT31;53349;53.538;8.584;2023-07-16T09:50:29;23.95;49.30
66522;SHT31;53349;53.538;8.584;2023-07-16T09:52:57;23.76;51.15
66522;SHT31;53349;53.538;8.584;2023-07-16T09:55:24;23.70;51.70
66522;SHT31;53349;53.538;8.584;2023-07-16T09:57:51;23.56;51.20
66522;SHT31;53349;53.538;8.584;2023-07-16T10:00:18;23.42;51.21
66522;SHT31;53349;53.538;8.584;2023-07-16T10:02:44;23.38;52.16
66522;SHT31;53349;53.538;8.584;2023-07-16T10:05:26;23.38;52.00
66522;SHT31;53349;53.538;8.584;2023-07-16T10:07:54;23.35;52.45
66522;SHT31;53349;53.538;8.584;2023-07-16T10:10:20;23.19;52.75
66522;SHT31;53349;53.538;8.584;2023-07-16T10:12:56;23.15;52.19
66522;SHT31;53349;53.538;8.584;2023-07-16T10:15:29;23.12;52.08
66522;SHT31;53349;53.538;8.584;2023-07-16T10:17:57;23.07;52.32
66522;SHT31;53349;53.538;8.584;2023-07-16T10:20:33;23.04;53.35
66522;SHT31;53349;53.538;8.584;2023-07-16T10:23:10;22.98;52.41
66522;SHT31;53349;53.538;8.584;2023-07-16T10:25:36;23.01;52.48
66522;SHT31;53349;53.538;8.584;2023-07-16T10:28:01;23.08;52.85
66522;SHT31;53349;53.538;8.584;2023-07-16T10:30:26;23.14;52.87
66522;SHT31;53349;53.538;8.584;2023-07-16T10:32:52;23.21;52.07
66522;SHT31;53349;53.538;8.584;2023-07-16T10:35:17;23.28;52.76
66522;SHT31;53349;53.538;8.584;2023-07-16T10:37:42;23.28;52.54
66522;SHT31;53349;53.538;8.584;2023-07-16T10:40:11;23.42;52.39
66522;SHT31;53349;53.538;8.584;2023-07-16T10:42:36;23.48;52.30
66522;SHT31;53349;53.538;8.584;2023-07-16T10:45:04;23.38;51.36
66522;SHT31;53349;53.538;8.584;2023-07-16T10:47:31;23.32;51.71
66522;SHT31;53349;53.538;8.584;2023-07-16T10:49:56;23.28;52.03
66522;SHT31;53349;53.538;8.584;2023-07-16T10:52:23;23.34;51.57
66522;SHT31;53349;53.538;8.584;2023-07-16T10:54:50;23.59;51.93
66522;SHT31;53349;53.538;8.584;2023-07-16T10:57:16;23.83;51.13
66522;SHT31;53349;53.538;8.584;2023-07-16T10:59:44;24.03;50.31
66522;SHT31;53349;53.538;8.584;2023-07-16T11:02:14;24.09;50.74
66522;SHT31;53349;53.538;8.584;2023-07-16T11:04:43;24.07;50.17
66522;SHT31;53349;53.538;8.584;2023-07-16T11:07:10;24.05;50.66
66522;SHT31;53349;53.538;8.584;2023-07-16T11:12:08;24.07;50.14
66522;SHT31;53349;53.538;8.584;2023-07-16T11:14:34;24.14;50.11
66522;SHT31;53349;53.538;8.584;2023-07-16T11:17:05;24.14;48.72
66522;SHT31;53349;53.538;8.584;2023-07-16T11:19:31;24.21;49.69
66522;SHT31;53349;53.538;8.584;2023-07-16T11:21:57;24.34;48.33
66522;SHT31;53349;53.538;8.584;2023-07-16T11:24:23;24.50;49.34
66522;SHT31;53349;53.538;8.584;2023-07-16T11:26:52;24.60;49.56
66522;SHT31;53349;53.538;8.584;2023-07-16T11:29:17;24.56;48.61
66522;SHT31;53349;53.538;8.584;2023-07-16T11:31:43;24.53;48.84
66522;SHT31;53349;53.538;8.584;2023-07-16T11:34:13;24.47;48.40
66522;SHT31;53349;53.538;8.584;2023-07-16T11:36:39;24.30;49.83
66522;SHT31;53349;53.538;8.584;2023-07-16T11:39:05;24.27;50.30
66522;SHT31;53349;53.538;8.584;2023-07-16T11:41:30;24.21;49.78
66522;SHT31;53349;53.538;8.584;2023-07-16T11:44:03;24.26;50.37
66522;SHT31;53349;53.538;8.584;2023-07-16T11:46:32;24.26;50.49
66522;SHT31;53349;53.538;8.584;2023-07-16T11:49:00;24.27;49.92
66522;SHT31;53349;53.538;8.584;2023-07-16T11:51:26;24.23;50.04
66522;SHT31;53349;53.538;8.584;2023-07-16T11:53:51;24.30;49.54
66522;SHT31;53349;53.538;8.584;2023-07-16T11:56:16;24.31;49.18
66522;SHT31;53349;53.538;8.584;2023-07-16T11:58:42;24.30;48.83
66522;SHT31;53349;53.538;8.584;2023-07-16T12:01:09;24.31;49.23
66522;SHT31;53349;53.538;8.584;2023-07-16T12:03:34;24.40;50.16
66522;SHT31;53349;53.538;8.584;2023-07-16T12:06:00;24.34;50.23
66522;SHT31;53349;53.538;8.584;2023-07-16T12:08:26;24.28;49.30
66522;SHT31;53349;53.538;8.584;2023-07-16T12:10:53;24.26;47.77
66522;SHT31;53349;53.538;8.584;2023-07-16T12:13:19;24.20;48.44
66522;SHT31;53349;53.538;8.584;2023-07-16T12:15:45;24.27;49.28
66522;SHT31;53349;53.538;8.584;2023-07-16T12:18:10;24.36;49.08
66522;SHT31;53349;53.538;8.584;2023-07-16T12:20:35;24.28;48.68
66522;SHT31;53349;53.538;8.584;2023-07-16T12:23:01;24.23;48.60
66522;SHT31;53349;53.538;8.584;2023-07-16T12:25:28;24.21;48.02
66522;SHT31;53349;53.538;8.584;2023-07-16T12:27:53;24.21;49.09
66522;SHT31;53349;53.538;8.584;2023-07-16T12:30:19;24.31;49.04
66522;SHT31;53349;53.538;8.584;2023-07-16T12:32:45;24.34;48.37
66522;SHT31;53349;53.538;8.584;2023-07-16T12:35:11;24.38;48.43
66522;SHT31;53349;53.538;8.584;2023-07-16T12:37:37;24.40;49.78
66522;SHT31;53349;53.538;8.584;2023-07-16T12:40:04;24.38;49.47
66522;SHT31;53349;53.538;8.584;2023-07-16T12:42:29;24.27;47.65
66522;SHT31;53349;53.538;8.584;2023-07-16T12:44:56;24.23;49.39
66522;SHT31;53349;53.538;8.584;2023-07-16T12:47:21;24.07;50.52
66522;SHT31;53349;53.538;8.584;2023-07-16T12:49:48;23.93;50.24
66522;SHT31;53349;53.538;8.584;2023-07-16T12:52:14;23.73;50.65
66522;SHT31;53349;53.538;8.584;2023-07-16T12:54:39;23.61;51.80
66522;SHT31;53349;53.538;8.584;2023-07-16T12:57:05;23.47;52.88
66522;SHT31;53349;53.538;8.584;2023-07-16T12:59:30;23.32;53.37
66522;SHT31;53349;53.538;8.584;2023-07-16T13:01:56;23.29;52.85
66522;SHT31;53349;53.538;8.584;2023-07-16T13:04:21;23.24;52.18
66522;SHT31;53349;53.538;8.584;2023-07-16T13:06:46;23.22;51.75
66522;SHT31;53349;53.538;8.584;2023-07-16T13:09:14;23.17;52.07
66522;SHT31;53349;53.538;8.584;2023-07-16T13:11:42;23.15;53.48
66522;SHT31;53349;53.538;8.584;2023-07-16T13:14:07;23.18;54.14
66522;SHT31;53349;53.538;8.584;2023-07-16T13:16:33;23.18;54.64
66522;SHT31;53349;53.538;8.584;2023-07-16T13:18:59;23.24;54.21
66522;SHT31;53349;53.538;8.584;2023-07-16T13:21:25;23.22;53.78
66522;SHT31;53349;53.538;8.584;2023-07-16T13:23:51;23.19;54.20
66522;SHT31;53349;53.538;8.584;2023-07-16T13:26:16;23.22;54.24
66522;SHT31;53349;53.538;8.584;2023-07-16T13:28:42;23.18;53.08
66522;SHT31;53349;53.538;8.584;2023-07-16T13:31:08;23.21;52.67
66522;SHT31;53349;53.538;8.584;2023-07-16T13:33:33;23.28;52.87
66522;SHT31;53349;53.538;8.584;2023-07-16T13:35:58;23.32;53.51
66522;SHT31;53349;53.538;8.584;2023-07-16T13:38:25;23.34;53.76
66522;SHT31;53349;53.538;8.584;2023-07-16T13:40:50;23.35;53.57
66522;SHT31;53349;53.538;8.584;2023-07-16T13:43:16;23.34;54.02
66522;SHT31;53349;53.538;8.584;2023-07-16T13:45:41;23.25;53.27
66522;SHT31;53349;53.538;8.584;2023-07-16T13:48:08;23.15;53.96
66522;SHT31;53349;53.538;8.584;2023-07-16T13:50:33;23.04;56.00
66522;SHT31;53349;53.538;8.584;2023-07-16T13:52:59;23.07;56.74
66522;SHT31;53349;53.538;8.584;2023-07-16T13:55:26;23.14;55.99
66522;SHT31;53349;53.538;8.584;2023-07-16T13:57:51;23.21;55.62
66522;SHT31;53349;53.538;8.584;2023-07-16T14:00:18;23.24;54.55
66522;SHT31;53349;53.538;8.584;2023-07-16T14:02:45;23.31;54.56
66522;SHT31;53349;53.538;8.584;2023-07-16T14:05:11;23.35;54.55
66522;SHT31;53349;53.538;8.584;2023-07-16T14:07:37;23.35;53.17
66522;SHT31;53349;53.538;8.584;2023-07-16T14:10:03;23.35;53.51
66522;SHT31;53349;53.538;8.584;2023-07-16T14:12:28;23.38;54.42
66522;SHT31;53349;53.538;8.584;2023-07-16T14:14:55;23.39;53.19
66522;SHT31;53349;53.538;8.584;2023-07-16T14:17:23;23.44;53.55
66522;SHT31;53349;53.538;8.584;2023-07-16T14:19:49;23.47;53.06
66522;SHT31;53349;53.538;8.584;2023-07-16T14:22:17;23.49;52.81
66522;SHT31;53349;53.538;8.584;2023-07-16T14:24:43;23.49;53.24
66522;SHT31;53349;53.538;8.584;2023-07-16T14:27:08;23.54;53.75
66522;SHT31;53349;53.538;8.584;2023-07-16T14:29:34;23.56;53.99
66522;SHT31;53349;53.538;8.584;2023-07-16T14:32:02;23.58;53.69
66522;SHT31;53349;53.538;8.584;2023-07-16T14:34:29;23.68;52.88
66522;SHT31;53349;53.538;8.584;2023-07-16T14:36:54;23.76;53.21
66522;SHT31;53349;53.538;8.584;2023-07-16T14:39:20;23.68;53.14
66522;SHT31;53349;53.538;8.584;2023-07-16T14:41:45;23.62;52.17
66522;SHT31;53349;53.538;8.584;2023-07-16T14:44:12;23.56;52.81
66522;SHT31;53349;53.538;8.584;2023-07-16T14:46:37;23.52;52.47
66522;SHT31;53349;53.538;8.584;2023-07-16T14:49:03;23.52;51.93
66522;SHT31;53349;53.538;8.584;2023-07-16T14:51:30;23.39;53.01
66522;SHT31;53349;53.538;8.584;2023-07-16T14:53:56;23.34;53.47
66522;SHT31;53349;53.538;8.584;2023-07-16T14:56:24;23.31;53.43
66522;SHT31;53349;53.538;8.584;2023-07-16T14:58:51;23.32;53.14
66522;SHT31;53349;53.538;8.584;2023-07-16T15:01:16;23.27;52.86
66522;SHT31;53349;53.538;8.584;2023-07-16T15:03:43;23.27;53.34
66522;SHT31;53349;53.538;8.584;2023-07-16T15:06:08;23.25;53.73
66522;SHT31;53349;53.538;8.584;2023-07-16T15:08:36;23.29;54.02
66522;SHT31;53349;53.538;8.584;2023-07-16T15:11:02;23.28;54.26
66522;SHT31;53349;53.538;8.584;2023-07-16T15:13:28;23.22;54.58
66522;SHT31;53349;53.538;8.584;2023-07-16T15:15:54;23.19;53.33
66522;SHT31;53349;53.538;8.584;2023-07-16T15:18:20;23.17;54.01
66522;SHT31;53349;53.538;8.584;2023-07-16T15:20:46;23.12;55.26
66522;SHT31;53349;53.538;8.584;2023-07-16T15:23:12;23.12;54.02
66522;SHT31;53349;53.538;8.584;2023-07-16T15:25:40;23.15;55.64
66522;SHT31;53349;53.538;8.584;2023-07-16T15:28:10;23.25;55.74
66522;SHT31;53349;53.538;8.584;2023-07-16T15:30:35;23.31;54.69
66522;SHT31;53349;53.538;8.584;2023-07-16T15:33:01;23.29;55.40